Time;durP1;ratioP1;P1;durP2;ratioP2;P2;SDS_P1;SDS_P2;PMS_P1;PMS_P2;Temp;Humidity;BMP_temperature;BMP_pressure;BME280_temperature;BME280_humidity;BME280_pressure;Samples;Min_cycle;Max_cycle;Signal;HPM_P1;HPM_P2
2022/12/15 00:41:00;;;;;;;43.60;30.35;;;;;;;-7.25;100.00;100501.72;5064537;28;20040;-65
2022/12/15 00:43:33;;;;;;;42.85;30.30;;;;;;;-7.19;100.00;100507.31;5065687;28;20553;-64
2022/12/15 00:48:43;;;;;;;40.33;28.33;;;;;;;-7.18;100.00;100506.50;5061428;28;20495;-64
2022/12/15 00:51:09;;;;;;;41.03;28.85;;;;;;;-7.08;100.00;100515.75;5065567;28;20053;-65
2022/12/15 01:20:57;;;;;;;44.33;31.88;;;;;;;-7.33;100.00;100519.16;5064367;28;20102;-69
2022/12/15 01:23:22;;;;;;;43.25;31.20;;;;;;;-7.31;100.00;100521.84;5065000;28;20029;-67
2022/12/15 01:25:50;;;;;;;44.05;31.02;;;;;;;-7.26;100.00;100533.34;5064943;28;20040;-67
2022/12/15 01:28:16;;;;;;;42.97;30.85;;;;;;;-7.26;100.00;100529.09;5063506;28;20025;-67
2022/12/15 01:30:41;;;;;;;43.92;31.00;;;;;;;-7.28;100.00;100530.69;5066030;28;20037;-72
2022/12/15 01:33:06;;;;;;;43.80;31.02;;;;;;;-7.24;100.00;100522.38;5062598;28;20108;-70
2022/12/15 01:35:32;;;;;;;45.10;31.30;;;;;;;-7.23;100.00;100516.47;5064282;28;20075;-70
2022/12/15 01:37:57;;;;;;;45.22;32.42;;;;;;;-7.25;100.00;100514.56;5063721;28;20088;-67
2022/12/15 01:43:19;;;;;;;42.30;30.92;;;;;;;-7.25;100.00;100518.03;5058122;28;20040;-70
2022/12/15 01:45:54;;;;;;;43.28;31.50;;;;;;;-7.26;100.00;100526.53;5058900;28;20025;-68
2022/12/15 01:48:25;;;;;;;43.55;30.98;;;;;;;-7.37;100.00;100543.75;5064372;28;20032;-73
2022/12/15 01:51:00;;;;;;;41.28;29.48;;;;;;;-7.41;100.00;100543.41;5063647;28;20518;-66
2022/12/15 01:53:27;;;;;;;44.58;31.00;;;;;;;-7.33;100.00;100543.97;5063619;28;20498;-68
2022/12/15 01:55:53;;;;;;;41.88;29.88;;;;;;;-7.34;100.00;100530.22;5063872;28;20027;-68
2022/12/15 01:58:20;;;;;;;44.83;31.10;;;;;;;-7.39;100.00;100544.44;5064525;28;20029;-66
2022/12/15 02:00:46;;;;;;;42.72;31.25;;;;;;;-7.43;100.00;100539.84;5063023;28;20025;-69
2022/12/15 02:03:12;;;;;;;42.97;30.48;;;;;;;-7.43;100.00;100552.69;5065180;28;20058;-72
2022/12/15 02:05:40;;;;;;;42.90;30.95;;;;;;;-7.45;100.00;100565.44;5062024;28;20033;-72
2022/12/15 02:08:06;;;;;;;43.67;31.38;;;;;;;-7.56;100.00;100556.97;5057958;28;20025;-71
2022/12/15 02:10:47;;;;;;;42.58;30.75;;;;;;;-7.57;100.00;100556.81;5065085;28;20434;-72
2022/12/15 02:13:18;;;;;;;42.78;30.92;;;;;;;-7.56;100.00;100566.31;5059075;28;20031;-68
2022/12/15 02:15:52;;;;;;;44.15;31.13;;;;;;;-7.45;100.00;100569.69;5065040;28;20028;-69
2022/12/15 02:18:36;;;;;;;44.20;31.50;;;;;;;-7.52;100.00;100570.91;5063212;28;20052;-71
2022/12/15 02:21:18;;;;;;;44.25;31.25;;;;;;;-7.51;100.00;100570.13;5062521;28;20036;-70
2022/12/15 02:24:09;;;;;;;43.00;31.45;;;;;;;-7.48;100.00;100570.34;5059555;28;20437;-72
2022/12/15 02:27:02;;;;;;;45.80;31.65;;;;;;;-7.46;100.00;100578.16;5061732;28;20036;-71
2022/12/15 02:29:42;;;;;;;45.17;32.40;;;;;;;-7.49;100.00;100576.25;5062962;28;20055;-73
2022/12/15 02:32:15;;;;;;;44.22;32.75;;;;;;;-7.49;100.00;100578.81;5057927;28;20521;-73
2022/12/15 02:34:46;;;;;;;44.20;32.03;;;;;;;-7.45;100.00;100575.72;5058189;28;20028;-72
2022/12/15 02:37:28;;;;;;;45.92;32.53;;;;;;;-7.44;100.00;100572.38;5064526;28;20531;-73
2022/12/15 02:39:53;;;;;;;45.55;32.53;;;;;;;-7.44;100.00;100576.59;5063210;28;20383;-73
2022/12/15 02:42:19;;;;;;;46.45;33.45;;;;;;;-7.46;100.00;100584.19;5063834;28;20103;-73
2022/12/15 02:44:53;;;;;;;45.33;31.92;;;;;;;-7.50;100.00;100582.16;5062138;28;20033;-72
2022/12/15 02:47:32;;;;;;;45.40;32.20;;;;;;;-7.54;100.00;100583.63;5062269;28;20108;-67
2022/12/15 02:50:27;;;;;;;44.30;31.65;;;;;;;-7.61;100.00;100578.84;5063444;28;20039;-65
2022/12/15 02:53:25;;;;;;;44.33;31.63;;;;;;;-7.62;100.00;100586.44;5061027;28;20033;-64
2022/12/15 02:56:05;;;;;;;44.35;31.30;;;;;;;-7.63;100.00;100590.69;5026942;28;20041;-64
2022/12/15 02:58:46;;;;;;;43.00;31.85;;;;;;;-7.61;100.00;100585.66;5061938;28;20478;-64
2022/12/15 03:01:21;;;;;;;44.22;32.42;;;;;;;-7.57;100.00;100579.94;5056408;28;20426;-65
2022/12/15 03:03:47;;;;;;;44.97;32.03;;;;;;;-7.53;100.00;100585.44;5063545;28;20043;-65
2022/12/15 03:06:14;;;;;;;45.95;33.03;;;;;;;-7.51;100.00;100576.94;5059866;28;20025;-66
2022/12/15 03:08:39;;;;;;;45.22;32.63;;;;;;;-7.51;100.00;100575.28;5064835;28;20047;-64
2022/12/15 03:11:04;;;;;;;47.28;33.90;;;;;;;-7.54;100.00;100582.75;5061002;28;20403;-65
2022/12/15 03:13:30;;;;;;;45.08;32.40;;;;;;;-7.54;100.00;100593.91;5063669;28;20193;-66
2022/12/15 03:15:57;;;;;;;46.90;33.72;;;;;;;-7.52;100.00;100596.59;5062399;28;20420;-64
2022/12/15 03:18:22;;;;;;;46.60;33.08;;;;;;;-7.52;100.00;100604.28;5062274;28;20082;-64
2022/12/15 03:20:47;;;;;;;45.08;33.05;;;;;;;-7.55;100.00;100599.81;5062213;28;20471;-64
2022/12/15 03:23:13;;;;;;;45.63;33.03;;;;;;;-7.58;100.00;100601.28;5061040;28;20033;-64
2022/12/15 03:25:38;;;;;;;46.20;33.15;;;;;;;-7.62;100.00;100600.16;5064037;28;20040;-64
2022/12/15 03:28:04;;;;;;;44.85;32.60;;;;;;;-7.63;100.00;100597.47;5061042;28;20171;-64
2022/12/15 03:30:29;;;;;;;46.22;32.85;;;;;;;-7.71;100.00;100602.94;5063483;28;20116;-64
2022/12/15 03:32:54;;;;;;;46.72;33.88;;;;;;;-7.65;100.00;100604.19;5062398;28;20059;-64
2022/12/15 03:35:20;;;;;;;46.10;33.45;;;;;;;-7.68;100.00;100606.53;5061152;28;20036;-64
2022/12/15 03:37:45;;;;;;;46.85;33.55;;;;;;;-7.72;100.00;100610.53;5063610;28;20371;-64
2022/12/15 03:40:12;;;;;;;46.47;34.03;;;;;;;-7.71;100.00;100610.66;5059616;28;20090;-64
2022/12/15 03:42:47;;;;;;;46.75;33.63;;;;;;;-7.68;100.00;100606.53;5055697;28;20040;-64
2022/12/15 03:45:17;;;;;;;45.85;33.95;;;;;;;-7.72;100.00;100607.97;5057321;28;20405;-65
2022/12/15 03:47:43;;;;;;;46.92;33.28;;;;;;;-7.75;100.00;100603.50;5063790;28;20081;-65
2022/12/15 03:50:10;;;;;;;45.38;32.92;;;;;;;-7.77;100.00;100617.91;5060704;28;20464;-64
2022/12/15 03:52:35;;;;;;;48.50;34.13;;;;;;;-7.73;100.00;100612.22;5063667;28;20041;-65
2022/12/15 03:55:01;;;;;;;45.97;33.35;;;;;;;-7.74;100.00;100618.13;5061072;28;20194;-66
2022/12/15 03:57:26;;;;;;;46.15;34.08;;;;;;;-7.75;100.00;100616.31;5063029;28;20033;-64
2022/12/15 03:59:51;;;;;;;47.20;34.10;;;;;;;-7.77;100.00;100615.34;5062427;28;20535;-64
2022/12/15 04:02:17;;;;;;;47.15;33.90;;;;;;;-7.79;100.00;100609.22;5061107;28;20442;-66
2022/12/15 04:04:42;;;;;;;47.05;34.22;;;;;;;-7.80;100.00;100607.41;5063948;28;20353;-66
2022/12/15 04:07:08;;;;;;;46.42;33.45;;;;;;;-7.85;100.00;100607.84;5063606;28;20423;-65
2022/12/15 04:09:34;;;;;;;46.90;34.45;;;;;;;-7.82;100.00;100602.94;5067092;28;20187;-65
2022/12/15 04:12:02;;;;;;;46.88;34.20;;;;;;;-7.76;100.00;100596.59;5065300;28;20188;-65
2022/12/15 04:14:28;;;;;;;46.03;34.00;;;;;;;-7.69;100.00;100599.59;5066146;28;20056;-66
2022/12/15 04:16:53;;;;;;;47.50;34.65;;;;;;;-7.70;100.00;100598.72;5065702;28;20024;-64
2022/12/15 04:22:02;;;;;;;48.13;34.50;;;;;;;-7.65;100.00;100601.63;5064880;28;20048;-64
2022/12/15 05:32:50;;;;;;;54.40;39.40;;;;;;;-7.80;100.00;100638.22;5061633;28;20091;-67
2022/12/15 05:35:15;;;;;;;52.97;39.42;;;;;;;-7.78;100.00;100651.16;5066048;28;20491;-69
2022/12/15 05:37:41;;;;;;;53.20;40.15;;;;;;;-7.79;100.00;100642.56;5062431;28;20472;-67
2022/12/15 05:40:07;;;;;;;53.38;40.00;;;;;;;-7.73;100.00;100644.72;5065846;28;20063;-70
2022/12/15 05:42:32;;;;;;;54.55;40.33;;;;;;;-7.73;100.00;100640.47;5063010;28;20435;-70
2022/12/15 05:44:58;;;;;;;54.67;39.72;;;;;;;-7.74;100.00;100646.38;5064326;28;20029;-68
2022/12/15 05:47:23;;;;;;;54.03;39.08;;;;;;;-7.74;100.00;100648.06;5064428;28;20067;-70
2022/12/15 05:49:49;;;;;;;51.95;39.53;;;;;;;-7.78;100.00;100648.59;5063072;28;20021;-70
2022/12/15 05:52:15;;;;;;;51.28;38.78;;;;;;;-7.71;100.00;100651.72;5065071;28;20051;-70
2022/12/15 05:54:41;;;;;;;53.28;38.92;;;;;;;-7.69;100.00;100656.09;5062393;28;20112;-70
2022/12/15 05:57:06;;;;;;;54.15;40.65;;;;;;;-7.69;100.00;100656.97;5065343;28;20533;-70
2022/12/15 05:59:32;;;;;;;54.50;41.13;;;;;;;-7.66;100.00;100658.88;5063104;28;20621;-71
2022/12/15 06:01:57;;;;;;;54.20;41.03;;;;;;;-7.69;100.00;100671.50;5064435;28;20063;-71
2022/12/15 06:04:22;;;;;;;54.97;41.28;;;;;;;-7.72;100.00;100662.78;5063848;28;20032;-70
2022/12/15 06:06:48;;;;;;;54.95;41.83;;;;;;;-7.74;100.00;100666.03;5062875;28;20029;-70
2022/12/15 06:09:13;;;;;;;55.78;42.08;;;;;;;-7.74;100.00;100674.59;5065607;28;20387;-71
2022/12/15 06:11:38;;;;;;;55.15;41.50;;;;;;;-7.74;100.00;100674.59;5060568;28;20476;-69
2022/12/15 06:14:04;;;;;;;57.45;42.03;;;;;;;-7.76;100.00;100671.03;5063815;28;20060;-71
2022/12/15 06:16:29;;;;;;;57.38;42.25;;;;;;;-7.73;100.00;100671.25;5059541;28;20107;-63
2022/12/15 06:19:00;;;;;;;55.08;42.15;;;;;;;-7.73;100.00;100661.00;5064169;28;20029;-65
2022/12/15 06:21:31;;;;;;;56.03;42.20;;;;;;;-7.77;100.00;100671.81;5062542;28;20085;-67
2022/12/15 06:23:57;;;;;;;56.17;40.97;;;;;;;-7.77;100.00;100661.53;5062137;28;20024;-66
2022/12/15 06:26:24;;;;;;;54.70;41.55;;;;;;;-7.76;100.00;100671.03;5064564;28;20437;-62
2022/12/15 06:28:50;;;;;;;55.63;42.47;;;;;;;-7.77;100.00;100666.69;5061868;28;20090;-65
2022/12/15 06:31:18;;;;;;;55.90;42.05;;;;;;;-7.78;100.00;100669.13;5062759;28;20124;-62
2022/12/15 06:33:44;;;;;;;53.58;41.75;;;;;;;-7.81;100.00;100674.03;5064568;28;20029;-61
2022/12/15 06:36:15;;;;;;;55.47;42.10;;;;;;;-7.85;100.00;100677.16;5064777;28;20468;-63
2022/12/15 06:38:44;;;;;;;55.07;41.13;;;;;;;-7.88;100.00;100675.25;5065574;28;20038;-62
2022/12/15 06:41:15;;;;;;;54.53;41.75;;;;;;;-7.85;100.00;100678.03;5063265;28;20472;-62
2022/12/15 06:43:42;;;;;;;54.47;42.33;;;;;;;-7.83;100.00;100681.63;5065089;28;20068;-62
2022/12/15 06:46:07;;;;;;;54.60;40.83;;;;;;;-7.81;100.00;100682.63;5062116;28;20062;-62
2022/12/15 06:48:33;;;;;;;54.70;41.53;;;;;;;-7.77;100.00;100678.63;5061731;28;20100;-61
2022/12/15 06:51:04;;;;;;;55.42;42.00;;;;;;;-7.74;100.00;100690.00;5063935;28;20045;-68
2022/12/15 06:53:29;;;;;;;54.80;41.35;;;;;;;-7.78;100.00;100689.66;5061983;28;20032;-68
2022/12/15 06:56:01;;;;;;;54.58;40.13;;;;;;;-7.82;100.00;100687.66;5061891;28;21588;-67
2022/12/15 06:58:26;;;;;;;54.95;41.47;;;;;;;-7.83;100.00;100686.75;5049595;28;20040;-69
2022/12/15 07:00:52;;;;;;;55.60;39.78;;;;;;;-7.77;100.00;100688.91;5051546;28;20079;-68
2022/12/15 07:03:18;;;;;;;55.20;41.15;;;;;;;-7.81;100.00;100684.31;5050003;28;20375;-69
2022/12/15 07:05:45;;;;;;;54.00;41.95;;;;;;;-7.78;100.00;100676.84;5050087;28;20479;-69
2022/12/15 07:08:12;;;;;;;57.03;41.90;;;;;;;-7.79;100.00;100681.09;5054155;28;20066;-68
2022/12/15 07:10:42;;;;;;;56.03;41.58;;;;;;;-7.73;100.00;100691.81;5065461;28;20028;-70
2022/12/15 07:13:12;;;;;;;55.03;40.72;;;;;;;-7.69;100.00;100692.91;5060672;28;20044;-68
2022/12/15 07:15:39;;;;;;;53.67;40.40;;;;;;;-7.60;100.00;100692.69;5061267;28;20115;-68
2022/12/15 07:18:05;;;;;;;54.33;40.05;;;;;;;-7.57;100.00;100703.19;5062724;28;20393;-67
2022/12/15 07:20:30;;;;;;;53.72;39.50;;;;;;;-7.56;100.00;100705.00;5059855;28;20040;-68
2022/12/15 07:22:56;;;;;;;53.13;39.55;;;;;;;-7.53;100.00;100701.00;5062082;28;20442;-68
2022/12/15 07:25:22;;;;;;;52.90;38.88;;;;;;;-7.51;100.00;100703.69;5065424;28;20056;-69
2022/12/15 07:27:47;;;;;;;54.55;40.50;;;;;;;-7.51;100.00;100703.69;5062436;28;20025;-69
2022/12/15 07:30:14;;;;;;;52.83;40.13;;;;;;;-7.53;100.00;100700.09;5059025;28;20029;-67
2022/12/15 07:32:40;;;;;;;54.15;40.45;;;;;;;-7.53;100.00;100698.44;5064094;28;20100;-69
2022/12/15 07:35:07;;;;;;;52.00;39.38;;;;;;;-7.51;100.00;100705.34;5059971;28;20060;-71
2022/12/15 07:37:33;;;;;;;53.50;40.38;;;;;;;-7.55;100.00;100711.94;5062138;28;20040;-68
2022/12/15 07:39:59;;;;;;;51.95;38.50;;;;;;;-7.54;100.00;100713.72;5061083;28;20029;-69
2022/12/15 07:42:24;;;;;;;54.70;40.72;;;;;;;-7.53;100.00;100715.50;5062913;28;20033;-66
2022/12/15 07:44:50;;;;;;;54.63;40.95;;;;;;;-7.47;100.00;100715.97;5067926;28;20040;-66
2022/12/15 07:47:15;;;;;;;54.10;40.33;;;;;;;-7.45;100.00;100711.84;5068196;28;20086;-67
2022/12/15 07:49:40;;;;;;;54.40;39.63;;;;;;;-7.48;100.00;100713.25;5067120;28;20039;-67
2022/12/15 07:52:06;;;;;;;54.63;39.95;;;;;;;-7.46;100.00;100711.72;5068940;28;20080;-66
2022/12/15 07:54:31;;;;;;;55.72;40.78;;;;;;;-7.46;100.00;100707.47;5065031;28;20074;-67
2022/12/15 07:56:58;;;;;;;54.35;40.30;;;;;;;-7.37;100.00;100708.16;5068173;28;20037;-71
2022/12/15 07:59:24;;;;;;;55.55;41.35;;;;;;;-7.36;100.00;100709.94;5065458;28;20029;-70
2022/12/15 08:01:51;;;;;;;54.35;41.60;;;;;;;-7.33;100.00;100718.66;5068230;28;20057;-71
2022/12/15 08:04:17;;;;;;;56.08;40.75;;;;;;;-7.30;100.00;100722.34;5065155;28;20107;-69
2022/12/15 08:06:42;;;;;;;55.08;41.67;;;;;;;-7.20;100.00;100723.91;5032861;28;20134;-70
2022/12/15 08:09:09;;;;;;;53.63;40.75;;;;;;;-7.15;100.00;100730.28;5065641;28;20036;-70
2022/12/15 08:11:35;;;;;;;55.20;40.63;;;;;;;-7.06;100.00;100730.97;5067448;28;20087;-68
2022/12/15 08:14:00;;;;;;;56.65;41.80;;;;;;;-6.91;100.00;100738.00;5067671;28;20430;-68
2022/12/15 08:16:26;;;;;;;57.40;43.17;;;;;;;-6.77;100.00;100736.41;5066905;28;20037;-70
2022/12/15 08:18:52;;;;;;;55.15;42.10;;;;;;;-6.60;100.00;100735.94;5068904;28;20107;-69
2022/12/15 08:21:18;;;;;;;53.50;40.08;;;;;;;-6.50;100.00;100733.22;5065643;28;20036;-71
2022/12/15 08:23:43;;;;;;;50.70;39.35;;;;;;;-6.35;100.00;100730.88;5050194;28;20040;-64
2022/12/15 08:26:12;;;;;;;53.38;39.22;;;;;;;-6.25;100.00;100726.34;5056238;28;20281;-72
2022/12/15 08:28:38;;;;;;;50.13;37.22;;;;;;;-6.06;100.00;100737.13;5056009;28;20037;-68
2022/12/15 08:31:06;;;;;;;53.08;41.28;;;;;;;-6.07;100.00;100731.88;5055297;28;20494;-66
2022/12/15 08:33:32;;;;;;;53.22;40.35;;;;;;;-6.03;100.00;100732.22;5054659;28;20376;-64
2022/12/15 08:36:04;;;;;;;51.72;40.08;;;;;;;-5.90;100.00;100731.31;5056177;28;20033;-67
2022/12/15 08:38:33;;;;;;;50.33;38.20;;;;;;;-5.73;100.00;100729.03;5051099;28;20025;-63
2022/12/15 08:41:10;;;;;;;50.92;38.15;;;;;;;-5.58;100.00;100729.16;5053668;28;20040;-69
2022/12/15 08:43:36;;;;;;;48.50;36.88;;;;;;;-5.55;100.00;100737.09;5067240;28;20375;-63
2022/12/15 08:46:03;;;;;;;47.45;37.08;;;;;;;-5.45;100.00;100736.91;5062112;28;20471;-63
2022/12/15 08:48:28;;;;;;;51.78;37.13;;;;;;;-5.29;100.00;100733.66;5068106;28;20108;-67
2022/12/15 08:50:55;;;;;;;49.60;37.22;;;;;;;-5.25;100.00;100741.69;5061672;28;20128;-62
2022/12/15 08:53:21;;;;;;;48.92;37.70;;;;;;;-5.18;100.00;100735.28;5064330;28;20411;-63
2022/12/15 08:55:46;;;;;;;47.97;35.95;;;;;;;-4.99;100.00;100739.94;5063568;28;20041;-65
2022/12/15 08:58:11;;;;;;;48.03;35.53;;;;;;;-4.85;100.00;100745.97;5067307;28;20033;-64
2022/12/15 09:00:37;;;;;;;50.63;36.03;;;;;;;-4.67;100.00;100748.88;5063161;28;20031;-63
2022/12/15 09:03:02;;;;;;;46.70;35.60;;;;;;;-4.51;100.00;100757.56;5064773;28;20100;-65
2022/12/15 09:05:28;;;;;;;49.10;35.60;;;;;;;-4.38;100.00;100755.88;5064297;28;20424;-65
2022/12/15 09:07:57;;;;;;;47.58;37.03;;;;;;;-4.20;100.00;100769.03;5065415;28;20025;-70
2022/12/15 09:10:23;;;;;;;49.80;37.35;;;;;;;-3.83;100.00;100769.53;5063765;28;20090;-66
2022/12/15 09:12:49;;;;;;;46.45;35.83;;;;;;;-3.77;100.00;100773.38;5064330;28;20033;-62
2022/12/15 09:15:15;;;;;;;46.83;35.28;;;;;;;-3.63;100.00;100781.06;5066833;28;20048;-64
2022/12/15 09:17:41;;;;;;;47.03;34.85;;;;;;;-3.56;100.00;100778.94;5066640;28;20032;-62
2022/12/15 09:20:08;;;;;;;47.30;34.28;;;;;;;-3.58;100.00;100782.22;5063645;28;20052;-62
2022/12/15 09:22:33;;;;;;;47.85;35.20;;;;;;;-3.54;100.00;100779.03;5063969;28;20039;-62
2022/12/15 09:24:58;;;;;;;45.25;33.75;;;;;;;-3.55;100.00;100780.75;5066026;28;20033;-61
2022/12/15 09:27:24;;;;;;;44.70;33.03;;;;;;;-3.45;100.00;100784.78;5065042;28;20044;-62
2022/12/15 09:29:49;;;;;;;45.10;33.55;;;;;;;-3.57;100.00;100797.88;5065600;28;20033;-61
2022/12/15 09:32:14;;;;;;;48.17;34.30;;;;;;;-3.79;100.00;100798.22;5066694;28;20072;-63
2022/12/15 09:34:40;;;;;;;46.33;33.80;;;;;;;-3.87;100.00;100802.94;5066026;28;20064;-62
2022/12/15 09:37:06;;;;;;;45.67;34.00;;;;;;;-3.85;100.00;100805.59;5062726;28;20467;-63
2022/12/15 09:39:31;;;;;;;44.05;33.65;;;;;;;-3.80;100.00;100811.97;5062051;28;20032;-63
2022/12/15 09:41:59;;;;;;;45.22;33.67;;;;;;;-3.77;100.00;100811.22;5059383;28;20649;-64
2022/12/15 09:44:28;;;;;;;44.67;33.63;;;;;;;-3.59;100.00;100817.53;5058884;28;20056;-62
2022/12/15 09:47:14;;;;;;;47.05;34.70;;;;;;;-3.38;100.00;100817.03;5058718;28;20029;-62
2022/12/15 09:50:03;;;;;;;45.13;33.97;;;;;;;-3.24;100.00;100815.28;5062569;28;20025;-63
2022/12/15 09:52:39;;;;;;;48.17;34.65;;;;;;;-3.14;100.00;100821.91;5070158;28;20135;-62
2022/12/15 09:55:17;;;;;;;47.85;34.05;;;;;;;-2.91;100.00;100816.38;5065766;28;20032;-65
2022/12/15 09:57:49;;;;;;;45.72;33.47;;;;;;;-2.71;100.00;100824.38;5065778;28;20082;-69
2022/12/15 10:00:39;;;;;;;46.00;34.15;;;;;;;-2.61;100.00;100816.34;5057819;28;20035;-62
2022/12/15 10:03:26;;;;;;;43.78;32.15;;;;;;;-2.48;100.00;100818.81;5062853;28;20036;-62
2022/12/15 10:05:52;;;;;;;43.25;32.38;;;;;;;-2.37;100.00;100819.44;5063549;28;20033;-63
2022/12/15 10:08:19;;;;;;;43.67;32.25;;;;;;;-2.49;100.00;100817.06;5064511;28;20155;-62
2022/12/15 10:11:04;;;;;;;46.17;33.38;;;;;;;-2.31;100.00;100817.19;5063085;28;20454;-63
2022/12/15 10:13:52;;;;;;;44.20;34.20;;;;;;;-1.45;100.00;100814.88;5056046;28;20122;-62
2022/12/15 10:16:17;;;;;;;44.72;32.10;;;;;;;-0.99;100.00;100821.53;5064316;28;20488;-64
2022/12/15 10:19:00;;;;;;;43.40;31.90;;;;;;;-1.10;100.00;100813.19;5062385;28;20028;-64
2022/12/15 10:21:28;;;;;;;44.25;33.08;;;;;;;-1.29;100.00;100817.44;5060149;28;20532;-65
2022/12/15 10:23:58;;;;;;;43.17;32.53;;;;;;;-1.50;100.00;100809.44;5058324;28;20029;-63
2022/12/15 10:26:30;;;;;;;43.70;32.67;;;;;;;-1.36;100.00;100804.97;5066861;28;20039;-64
2022/12/15 10:29:21;;;;;;;41.00;30.63;;;;;;;-0.95;100.00;100813.09;5058525;28;20041;-63
2022/12/15 10:31:54;;;;;;;43.72;31.35;;;;;;;-0.37;100.00;100809.88;5064021;28;20024;-63
2022/12/15 10:34:28;;;;;;;42.25;30.55;;;;;;;0.19;100.00;100810.75;5061841;28;20037;-64
2022/12/15 10:36:55;;;;;;;40.15;29.55;;;;;;;0.83;100.00;100823.13;5057838;28;20426;-64
2022/12/15 10:39:22;;;;;;;40.25;29.00;;;;;;;0.99;100.00;100826.38;5065034;28;20037;-64
2022/12/15 10:42:12;;;;;;;39.05;29.10;;;;;;;1.28;100.00;100821.53;5062350;28;20340;-64
2022/12/15 10:44:41;;;;;;;40.17;29.30;;;;;;;2.05;100.00;100819.38;5061004;28;20111;-64
2022/12/15 10:47:27;;;;;;;39.67;28.55;;;;;;;2.56;100.00;100821.28;5063439;28;20032;-64
2022/12/15 10:49:54;;;;;;;37.92;27.70;;;;;;;3.24;100.00;100813.22;5056100;28;20029;-64
2022/12/15 10:52:26;;;;;;;39.08;28.52;;;;;;;3.75;100.00;100813.13;5064163;28;20057;-65
2022/12/15 10:54:52;;;;;;;40.63;29.10;;;;;;;4.01;100.00;100811.31;5057268;28;20399;-65
2022/12/15 10:57:22;;;;;;;38.00;27.75;;;;;;;3.99;100.00;100809.47;5064220;28;20035;-64
2022/12/15 10:59:48;;;;;;;39.78;27.50;;;;;;;3.92;100.00;100815.41;5060317;28;20032;-64
2022/12/15 11:02:19;;;;;;;38.60;27.58;;;;;;;3.56;100.00;100813.38;5063396;28;20032;-64
2022/12/15 11:05:15;;;;;;;36.67;26.92;;;;;;;3.90;100.00;100814.44;5060636;28;20376;-64
2022/12/15 11:07:51;;;;;;;37.90;27.45;;;;;;;3.99;100.00;100817.31;5061408;28;20472;-64
2022/12/15 11:13:21;;;;;;;37.42;27.05;;;;;;;5.75;100.00;100816.84;5062163;28;20048;-64
2022/12/15 11:15:50;;;;;;;38.13;27.23;;;;;;;5.63;100.00;100819.19;5060703;28;20060;-64
2022/12/15 11:18:40;;;;;;;39.47;27.58;;;;;;;5.85;100.00;100812.69;5063626;28;20040;-64
2022/12/15 11:21:14;;;;;;;37.03;26.23;;;;;;;6.00;100.00;100812.19;5060061;28;20488;-63
2022/12/15 11:23:58;;;;;;;37.63;26.83;;;;;;;6.08;100.00;100805.38;5062354;28;20491;-64
2022/12/15 11:26:33;;;;;;;37.38;26.55;;;;;;;6.58;100.00;100802.03;5056776;28;20051;-64
2022/12/15 11:29:26;;;;;;;35.85;26.88;;;;;;;6.52;100.00;100801.94;5057592;28;20108;-64
2022/12/15 11:31:53;;;;;;;36.63;26.60;;;;;;;7.25;100.00;100805.06;5060739;28;20365;-64
2022/12/15 11:34:24;;;;;;;36.78;27.02;;;;;;;7.15;100.00;100811.03;5062753;28;20094;-64
2022/12/15 11:37:02;;;;;;;35.90;26.67;;;;;;;7.71;100.00;100802.28;5061206;28;20120;-65
2022/12/15 11:39:46;;;;;;;35.78;25.83;;;;;;;7.55;100.00;100811.69;5057475;28;20476;-65
2022/12/15 11:42:23;;;;;;;37.13;26.50;;;;;;;7.38;97.22;100807.88;5062139;28;20025;-65
2022/12/15 11:45:30;;;;;;;36.97;26.48;;;;;;;8.51;99.71;100808.69;5063929;28;20024;-64
2022/12/15 11:48:11;;;;;;;36.33;25.92;;;;;;;9.20;50.79;100803.28;5036225;28;20376;-64
2022/12/15 11:50:55;;;;;;;36.83;25.60;;;;;;;9.30;50.12;100801.59;5059957;28;20025;-64
2022/12/15 11:53:26;;;;;;;35.45;25.58;;;;;;;9.05;48.70;100808.41;5057108;28;20052;-65
2022/12/15 11:55:54;;;;;;;35.83;25.40;;;;;;;8.90;49.89;100795.94;5057193;28;20025;-67
2022/12/15 11:58:32;;;;;;;35.22;25.27;;;;;;;9.13;49.99;100797.91;5051093;28;20041;-65
2022/12/15 12:01:07;;;;;;;33.70;24.73;;;;;;;8.66;48.12;100801.81;5052768;28;20152;-73
2022/12/15 12:03:48;;;;;;;35.63;25.83;;;;;;;8.94;50.18;100800.41;5053388;28;20470;-67
2022/12/15 12:06:40;;;;;;;35.00;25.50;;;;;;;8.90;48.98;100795.94;5055068;28;20024;-66
2022/12/15 12:09:15;;;;;;;34.92;25.27;;;;;;;9.48;47.85;100787.69;5057823;28;20508;-67
2022/12/15 12:11:58;;;;;;;35.70;25.80;;;;;;;10.52;44.61;100783.03;5061862;28;20102;-68
2022/12/15 12:14:47;;;;;;;35.83;24.85;;;;;;;11.70;44.06;100777.00;5059072;28;20112;-67
2022/12/15 12:17:37;;;;;;;34.40;24.58;;;;;;;11.55;40.84;100780.53;5058662;28;20025;-72
2022/12/15 12:20:15;;;;;;;32.90;23.33;;;;;;;11.18;41.72;100777.88;5052390;28;20456;-65
2022/12/15 12:22:49;;;;;;;34.00;24.02;;;;;;;11.52;40.98;100776.13;5060625;28;20039;-65
2022/12/15 12:25:19;;;;;;;33.65;23.83;;;;;;;11.83;38.86;100776.06;5060812;28;20020;-65
2022/12/15 12:28:02;;;;;;;32.97;23.80;;;;;;;11.93;41.66;100768.13;5067390;28;20032;-65
2022/12/15 12:30:38;;;;;;;32.70;23.52;;;;;;;12.60;38.77;100764.38;5057293;28;20025;-65
2022/12/15 12:33:27;;;;;;;33.13;23.42;;;;;;;12.65;40.66;100767.84;5064663;28;20048;-65
2022/12/15 12:35:59;;;;;;;33.60;23.98;;;;;;;12.95;37.95;100765.06;5063539;28;20511;-67
2022/12/15 12:38:38;;;;;;;32.88;24.15;;;;;;;11.40;39.87;100767.31;5066365;28;20025;-72
2022/12/15 12:41:13;;;;;;;32.83;24.48;;;;;;;8.97;43.54;100776.69;5062777;28;20483;-67
2022/12/15 12:43:45;;;;;;;34.58;23.92;;;;;;;9.24;43.84;100776.03;5061222;28;20020;-71
2022/12/15 12:46:18;;;;;;;32.95;24.13;;;;;;;10.07;43.76;100774.88;5067795;28;20028;-72
2022/12/15 12:48:55;;;;;;;34.92;25.48;;;;;;;11.77;43.07;100776.09;5066796;28;20422;-70
2022/12/15 12:51:27;;;;;;;34.53;25.33;;;;;;;12.31;39.58;100772.47;5065521;28;20095;-72
2022/12/15 12:53:53;;;;;;;34.60;25.95;;;;;;;12.73;37.29;100766.06;5059066;28;20052;-76
2022/12/15 12:56:36;;;;;;;35.10;25.67;;;;;;;12.08;40.76;100765.47;5064037;28;20075;-72
2022/12/15 12:59:23;;;;;;;34.88;25.50;;;;;;;12.98;37.99;100762.38;5060419;28;20459;-74
2022/12/15 13:01:48;;;;;;;34.95;25.30;;;;;;;12.97;37.26;100755.31;5063655;28;20032;-71
2022/12/15 13:04:29;;;;;;;34.55;25.02;;;;;;;11.95;39.97;100754.00;5056587;28;20059;-67
2022/12/15 13:06:58;;;;;;;33.40;24.77;;;;;;;11.91;38.64;100746.94;5063982;28;20037;-67
2022/12/15 13:09:37;;;;;;;34.38;25.83;;;;;;;12.54;40.59;100738.75;5062849;28;20107;-67
2022/12/15 13:12:03;;;;;;;33.30;24.80;;;;;;;12.96;37.40;100740.25;5060651;28;20021;-74
2022/12/15 13:14:38;;;;;;;35.00;24.40;;;;;;;13.92;36.95;100738.56;5065976;28;20025;-72
2022/12/15 13:17:13;;;;;;;33.22;23.75;;;;;;;13.90;35.91;100732.34;5063862;28;20029;-66
2022/12/15 13:19:57;;;;;;;32.05;23.00;;;;;;;13.96;35.67;100726.09;5062890;28;20354;-67
2022/12/15 13:22:31;;;;;;;33.05;23.67;;;;;;;14.44;36.94;100726.38;5062661;28;20112;-67
2022/12/15 13:24:57;;;;;;;33.80;24.13;;;;;;;14.90;35.20;100722.22;5064462;28;20032;-69
2022/12/15 13:27:25;;;;;;;33.88;23.77;;;;;;;14.60;34.13;100723.50;5064516;28;20463;-68
2022/12/15 13:30:08;;;;;;;31.70;23.13;;;;;;;13.44;37.37;100716.91;5063580;28;20021;-66
2022/12/15 13:32:38;;;;;;;32.75;23.98;;;;;;;13.15;37.03;100715.38;5063526;28;20040;-69
2022/12/15 13:35:12;;;;;;;32.22;24.20;;;;;;;13.77;37.47;100715.69;5065486;28;20032;-69
2022/12/15 13:37:40;;;;;;;33.25;24.30;;;;;;;14.11;35.59;100715.28;5062321;28;20021;-68
2022/12/15 13:40:33;;;;;;;33.40;25.33;;;;;;;13.22;38.57;100711.78;5065144;28;20028;-74
2022/12/15 13:43:05;;;;;;;35.53;26.17;;;;;;;13.03;37.60;100712.78;5063409;28;20029;-67
2022/12/15 13:45:35;;;;;;;34.72;26.63;;;;;;;13.17;37.56;100710.91;5063345;28;20036;-67
2022/12/15 13:48:11;;;;;;;35.10;26.00;;;;;;;13.48;36.25;100721.28;5064612;28;20196;-68